ADDS METAR Data INFO
IDs: Format: Raw Decoded Include TAF

Data at: 2033 UTC 22 Feb 2018

KMHR 221945Z 18005KT 10SM SCT100 10/M00 A3020
KMHR 221845Z 19008KT 10SM FEW026 09/02 A3021
KMHR 221750Z 17007KT 10SM SKC 07/02 A3021
KMHR 221645Z 15009KT 10SM SKC 06/02 A3020
KMHR 221545Z 12008KT 10SM FEW030 03/01 A3018
KMHR 221445Z 11006KT 10SM FEW019 01/M00 A3017
KMHR 221345Z 13011KT 10SM SCT100 00/M01 A3015
KMHR 221255Z 15013KT 10SM SCT100 01/M01 A3013
KMHR 221155Z 11009KT 10SM BKN090 01/M02 A3014
KMHR 221055Z 13009KT 10SM BKN065 01/M02 A3016
KMHR 220730Z 11005KT 10SM SCT250 01/M03 A3018
KMHR 220545Z 13009KT 10SM SCT250 01/M03 A3017
KMHR 220445Z 14006KT 10SM SCT250 05/M03 A3016
KMHR 212345Z 35004KT 10SM SKC 12/M06 A3015
KMHR 212250Z 31007KT 10SM SKC 12/M06 A3017
KMHR 212145Z 30009KT 10SM SKC 12/M06 A3018
KMHR 212045Z 33012KT 10SM SKC 11/M07 A3019
KMHR 211945Z 31009KT 10SM SKC 11/M04 A3021
KMHR 211850Z 30007KT 10SM SKC SKC 09/M05 A3022
KMHR 211750Z 29008KT 10 SKC 08/M05 A3022
KMHR 211650Z 33006KT 10SM SKC 05/M04 A3021
KMHR 211545Z 35005KT 10SM SKC 01/M04 A3022
KMHR 201450Z 00000KT 10SM SKC M03/M05 A3021
KMHR 211445Z 00000KT 10SM SCT110 02/M04 A3021